Time;durP1;ratioP1;P1;durP2;ratioP2;P2;SDS_P1;SDS_P2;PMS_P1;PMS_P2;Temp;Humidity;BMP_temperature;BMP_pressure;BME280_temperature;BME280_humidity;BME280_pressure;Samples;Min_cycle;Max_cycle;Signal;HPM_P1;HPM_P2
2021/03/13 00:00:27;;;;;;;1.75;0.80;;;8.20;43.10;;;;;;5043883;28;20108;-60
2021/03/13 00:02:55;;;;;;;3.45;0.70;;;8.20;42.50;;;;;;5045560;28;20040;-61
2021/03/13 00:05:39;;;;;;;2.00;0.65;;;8.20;42.10;;;;;;5043938;28;20045;-61
2021/03/13 00:08:05;;;;;;;1.98;0.80;;;8.20;43.50;;;;;;5043841;28;20048;-60
2021/03/13 00:10:30;;;;;;;1.23;0.57;;;8.20;43.30;;;;;;5043863;28;20045;-60
2021/03/13 00:12:56;;;;;;;4.57;0.95;;;8.20;43.80;;;;;;5043558;28;20059;-61
2021/03/13 00:15:21;;;;;;;2.85;0.68;;;8.20;43.40;;;;;;5045092;28;20343;-60
2021/03/13 00:17:51;;;;;;;3.80;0.70;;;8.20;43.20;;;;;;5043395;28;20037;-60
2021/03/13 00:20:19;;;;;;;1.65;0.70;;;8.20;43.00;;;;;;5043495;28;20040;-61
2021/03/13 00:22:45;;;;;;;5.07;0.70;;;8.20;42.50;;;;;;5043742;28;20198;-61
2021/03/13 00:25:11;;;;;;;3.05;1.00;;;8.20;43.10;;;;;;5043340;28;20091;-60
2021/03/13 00:27:46;;;;;;;2.95;0.70;;;8.30;43.40;;;;;;5043327;28;20281;-60
2021/03/13 00:30:16;;;;;;;2.33;1.00;;;8.30;43.00;;;;;;5044857;28;20029;-60
2021/03/13 00:32:41;;;;;;;3.13;0.70;;;8.20;42.50;;;;;;5043791;28;20046;-61
2021/03/13 00:35:08;;;;;;;2.30;1.13;;;8.20;43.10;;;;;;5043211;28;20368;-61
2021/03/13 00:37:33;;;;;;;2.28;0.80;;;8.20;42.20;;;;;;5043062;28;20045;-61
2021/03/13 00:39:59;;;;;;;2.40;0.63;;;8.10;42.60;;;;;;5042996;28;20059;-61
2021/03/13 00:42:24;;;;;;;2.30;0.85;;;8.20;42.80;;;;;;5044524;28;20352;-61
2021/03/13 00:44:50;;;;;;;3.58;0.85;;;8.30;42.50;;;;;;5043630;28;20041;-61
2021/03/13 00:47:15;;;;;;;2.58;0.70;;;8.30;42.50;;;;;;5043405;28;20052;-62
2021/03/13 00:49:41;;;;;;;2.92;0.70;;;8.30;43.10;;;;;;5042849;28;20034;-61
2021/03/13 00:52:06;;;;;;;2.28;0.60;;;8.30;43.50;;;;;;5042291;28;20034;-61
2021/03/13 00:54:32;;;;;;;2.80;0.80;;;8.40;42.50;;;;;;5043315;28;20037;-60
2021/03/13 00:56:57;;;;;;;3.50;0.93;;;8.40;42.00;;;;;;5044271;28;20037;-61
2021/03/13 00:59:23;;;;;;;2.28;0.80;;;8.40;42.60;;;;;;5042490;28;20060;-61
2021/03/13 01:01:48;;;;;;;1.65;0.60;;;8.30;43.10;;;;;;5043166;28;20112;-60
2021/03/13 01:04:14;;;;;;;2.25;0.70;;;8.40;42.70;;;;;;5042650;28;20033;-61
2021/03/13 01:06:39;;;;;;;2.33;0.60;;;8.30;43.10;;;;;;5043172;28;20038;-60
2021/03/13 01:09:05;;;;;;;2.95;0.80;;;8.40;42.70;;;;;;5044474;28;20029;-60
2021/03/13 01:11:31;;;;;;;2.28;0.70;;;8.40;42.80;;;;;;5043152;28;20213;-61
2021/03/13 01:13:56;;;;;;;1.98;0.80;;;8.40;42.50;;;;;;5030317;28;20139;-61
2021/03/13 01:16:22;;;;;;;1.55;0.63;;;8.30;42.60;;;;;;5030812;28;20037;-61
2021/03/13 01:18:47;;;;;;;2.05;0.70;;;8.40;42.70;;;;;;5042760;28;20029;-60
2021/03/13 01:21:13;;;;;;;2.60;0.80;;;8.30;42.30;;;;;;5044073;28;20096;-60
2021/03/13 01:23:38;;;;;;;2.42;0.70;;;8.40;42.10;;;;;;5042964;28;20115;-61
2021/03/13 01:26:04;;;;;;;4.63;0.70;;;8.40;43.10;;;;;;5042752;28;20049;-60
2021/03/13 01:28:29;;;;;;;3.58;0.70;;;8.30;42.20;;;;;;5042525;28;20037;-61
2021/03/13 01:30:55;;;;;;;3.17;0.60;;;8.30;41.80;;;;;;5042303;28;20217;-61
2021/03/13 01:33:20;;;;;;;2.33;0.70;;;8.40;42.00;;;;;;5044179;28;20324;-61
2021/03/13 01:35:46;;;;;;;1.02;0.60;;;8.30;42.80;;;;;;5042379;28;20037;-60
2021/03/13 01:38:11;;;;;;;1.70;0.60;;;8.40;43.80;;;;;;5027936;28;20041;-60
2021/03/13 01:40:39;;;;;;;2.38;0.70;;;8.40;41.80;;;;;;5032661;28;20285;-60
2021/03/13 01:43:04;;;;;;;0.85;0.60;;;8.30;42.90;;;;;;5042364;28;20044;-60
2021/03/13 01:45:30;;;;;;;2.95;0.70;;;8.30;41.90;;;;;;5042182;28;20232;-61
2021/03/13 01:47:55;;;;;;;2.10;0.63;;;8.30;42.40;;;;;;5044089;28;20045;-61
2021/03/13 01:50:21;;;;;;;1.75;0.65;;;8.30;42.50;;;;;;5042532;28;20034;-60
2021/03/13 01:52:48;;;;;;;1.23;0.60;;;8.30;42.10;;;;;;5041624;28;20029;-61
2021/03/13 01:55:13;;;;;;;0.80;0.57;;;8.30;42.00;;;;;;5041201;28;20037;-60
2021/03/13 01:57:39;;;;;;;1.17;0.50;;;8.30;43.20;;;;;;5042022;28;20078;-61
2021/03/13 02:00:09;;;;;;;2.05;0.50;;;8.30;43.70;;;;;;5043717;28;20100;-61
2021/03/13 02:02:35;;;;;;;1.88;0.65;;;8.30;42.70;;;;;;5024719;28;20321;-60
2021/03/13 02:05:00;;;;;;;1.48;0.65;;;8.40;43.60;;;;;;5035604;28;20076;-61
2021/03/13 02:07:29;;;;;;;3.60;0.60;;;8.40;42.70;;;;;;5042239;28;20065;-61
2021/03/13 02:10:07;;;;;;;1.73;0.52;;;8.40;43.10;;;;;;5042281;28;20064;-60
2021/03/13 02:12:53;;;;;;;2.55;0.57;;;8.40;42.70;;;;;;5041924;28;20029;-61
2021/03/13 02:15:27;;;;;;;3.05;0.63;;;8.40;43.60;;;;;;5044576;28;20079;-60
2021/03/13 02:18:02;;;;;;;2.45;0.65;;;8.30;43.30;;;;;;5045616;28;20057;-61
2021/03/13 02:20:47;;;;;;;2.60;0.60;;;8.40;43.00;;;;;;5012530;28;20065;-60
2021/03/13 02:23:12;;;;;;;3.40;0.93;;;8.40;43.20;;;;;;5030653;28;20360;-61
2021/03/13 02:25:56;;;;;;;1.48;0.60;;;8.40;44.30;;;;;;5045511;28;20034;-61
2021/03/13 02:28:28;;;;;;;2.78;1.15;;;8.40;45.10;;;;;;5038076;28;20037;-61
2021/03/13 02:30:54;;;;;;;0.98;0.60;;;8.40;45.50;;;;;;5028838;28;20103;-60
2021/03/13 02:33:30;;;;;;;2.50;0.70;;;8.40;44.80;;;;;;5046258;28;20041;-60
2021/03/13 02:35:57;;;;;;;2.22;0.70;;;8.40;44.80;;;;;;5045193;28;20053;-60
2021/03/13 02:38:30;;;;;;;1.80;0.60;;;8.40;46.10;;;;;;5045284;28;20063;-61
2021/03/13 02:41:00;;;;;;;1.63;0.50;;;8.40;46.00;;;;;;5044274;28;20307;-60
2021/03/13 02:43:26;;;;;;;2.40;0.68;;;8.40;45.90;;;;;;5044110;28;20037;-60
2021/03/13 02:45:55;;;;;;;3.00;0.85;;;8.40;46.90;;;;;;5024205;28;20044;-60
2021/03/13 02:48:20;;;;;;;2.75;0.68;;;8.40;47.30;;;;;;5026130;28;20337;-61
2021/03/13 02:50:46;;;;;;;4.00;0.80;;;8.40;46.80;;;;;;5044000;28;20044;-60
2021/03/13 02:53:11;;;;;;;1.85;0.50;;;8.40;46.20;;;;;;5045335;28;20079;-60
2021/03/13 02:55:37;;;;;;;4.05;0.77;;;8.40;47.00;;;;;;5045434;28;20034;-61
2021/03/13 02:58:04;;;;;;;2.03;0.60;;;8.40;47.10;;;;;;5022381;28;20061;-61
2021/03/13 03:00:36;;;;;;;2.65;0.70;;;8.40;47.00;;;;;;5024269;28;20420;-60
2021/03/13 03:03:02;;;;;;;1.73;0.60;;;8.40;46.70;;;;;;5025982;28;20030;-61
2021/03/13 03:05:28;;;;;;;2.25;0.70;;;8.30;47.40;;;;;;5024825;28;20037;-61
2021/03/13 03:07:54;;;;;;;3.55;0.73;;;8.30;47.40;;;;;;5045257;28;20091;-60
2021/03/13 03:10:21;;;;;;;3.45;0.63;;;8.30;47.10;;;;;;5045129;28;20037;-60
2021/03/13 03:12:47;;;;;;;3.55;0.57;;;8.30;47.30;;;;;;5043636;28;20107;-61
2021/03/13 03:15:13;;;;;;;2.00;0.70;;;8.30;47.00;;;;;;5046323;28;20236;-60
2021/03/13 03:17:39;;;;;;;1.70;0.60;;;8.30;48.40;;;;;;5009339;28;20052;-60
2021/03/13 03:20:06;;;;;;;2.22;0.50;;;8.30;47.10;;;;;;5024019;28;20037;-61
2021/03/13 03:22:32;;;;;;;1.50;0.63;;;8.30;48.30;;;;;;5034063;28;20032;-61
2021/03/13 03:24:58;;;;;;;5.22;0.60;;;8.20;48.60;;;;;;5023644;28;20026;-60
2021/03/13 03:27:23;;;;;;;2.67;0.90;;;8.20;48.40;;;;;;5024728;28;20057;-61
2021/03/13 03:29:49;;;;;;;2.72;0.95;;;8.20;48.20;;;;;;5044286;28;20038;-61
2021/03/13 03:32:14;;;;;;;1.55;0.70;;;8.20;48.80;;;;;;5043495;28;20042;-61
2021/03/13 03:34:40;;;;;;;1.40;0.70;;;8.10;48.50;;;;;;5043386;28;20064;-60
2021/03/13 03:37:05;;;;;;;1.23;0.60;;;8.30;48.70;;;;;;5044304;28;20329;-61
2021/03/13 03:39:31;;;;;;;2.08;0.57;;;8.20;49.80;;;;;;5044231;28;20352;-61
2021/03/13 03:41:56;;;;;;;3.53;0.70;;;8.20;49.50;;;;;;5046036;28;20081;-60
2021/03/13 03:44:26;;;;;;;2.50;0.68;;;8.20;49.80;;;;;;5011188;28;20041;-60
2021/03/13 03:46:54;;;;;;;1.30;0.50;;;8.20;49.80;;;;;;5035461;28;20029;-60
2021/03/13 03:49:20;;;;;;;2.20;0.60;;;8.20;50.10;;;;;;5044334;28;20220;-60
2021/03/13 03:51:46;;;;;;;2.85;0.60;;;8.10;49.90;;;;;;5043209;28;20092;-60
2021/03/13 03:54:11;;;;;;;3.28;0.60;;;8.10;49.90;;;;;;5045841;28;20045;-60
2021/03/13 03:56:41;;;;;;;2.63;0.60;;;8.10;49.70;;;;;;5008969;28;20379;-60
2021/03/13 03:59:10;;;;;;;3.10;0.90;;;8.10;50.10;;;;;;5037122;28;20064;-61
2021/03/13 04:01:36;;;;;;;1.35;0.55;;;8.10;51.10;;;;;;5043676;28;20061;-60
2021/03/13 04:04:01;;;;;;;1.77;0.60;;;8.10;50.10;;;;;;5021307;28;20033;-61
2021/03/13 04:06:27;;;;;;;3.17;0.88;;;8.10;49.80;;;;;;5022952;28;20348;-61
2021/03/13 04:08:54;;;;;;;1.92;0.80;;;8.00;49.60;;;;;;5024395;28;20022;-61
2021/03/13 04:11:21;;;;;;;2.40;0.70;;;7.90;50.60;;;;;;5038818;28;20217;-60
2021/03/13 04:13:49;;;;;;;1.55;0.60;;;8.00;50.40;;;;;;5042790;28;20033;-61
2021/03/13 04:16:15;;;;;;;1.92;0.60;;;8.00;50.50;;;;;;5042244;28;20037;-60
2021/03/13 04:18:41;;;;;;;1.98;1.15;;;8.00;50.30;;;;;;5042675;28;20091;-61
2021/03/13 04:21:06;;;;;;;2.47;0.70;;;7.90;50.60;;;;;;5045268;28;20028;-61
2021/03/13 04:23:33;;;;;;;1.58;0.50;;;7.90;51.20;;;;;;5043838;28;20060;-61
2021/03/13 04:25:59;;;;;;;3.88;0.70;;;7.90;51.40;;;;;;5042236;28;20029;-60
2021/03/13 04:28:24;;;;;;;1.23;0.60;;;7.90;50.30;;;;;;5018098;28;20090;-60
2021/03/13 04:30:50;;;;;;;0.63;0.50;;;7.90;51.10;;;;;;5025707;28;20088;-60
2021/03/13 04:33:16;;;;;;;2.30;0.57;;;7.90;50.90;;;;;;5045342;28;20343;-61
2021/03/13 04:35:41;;;;;;;4.30;0.80;;;7.90;51.40;;;;;;5042510;28;20057;-61
2021/03/13 04:38:08;;;;;;;1.67;0.70;;;7.90;51.40;;;;;;5041243;28;20041;-60
2021/03/13 04:40:33;;;;;;;1.55;0.50;;;7.90;51.50;;;;;;5042973;28;20109;-60
2021/03/13 04:42:59;;;;;;;1.48;0.70;;;7.90;52.20;;;;;;5042999;28;20329;-60
2021/03/13 04:45:24;;;;;;;1.73;0.68;;;7.90;51.30;;;;;;5043812;28;20071;-61
2021/03/13 04:47:50;;;;;;;1.83;0.57;;;7.90;51.90;;;;;;5042043;28;20079;-60
2021/03/13 04:50:18;;;;;;;1.95;0.60;;;7.90;51.10;;;;;;5042220;28;20057;-61
2021/03/13 04:52:43;;;;;;;1.58;0.70;;;7.90;51.50;;;;;;5042949;28;20091;-60
2021/03/13 04:55:09;;;;;;;1.67;0.50;;;7.80;51.10;;;;;;5043019;28;20029;-61
2021/03/13 04:57:35;;;;;;;1.60;1.00;;;7.80;50.90;;;;;;5043010;28;20040;-61
2021/03/13 05:00:01;;;;;;;2.17;0.60;;;7.80;51.30;;;;;;5044238;28;20045;-61
2021/03/13 05:02:27;;;;;;;3.25;0.75;;;7.80;51.30;;;;;;5043193;28;20037;-61
2021/03/13 05:04:52;;;;;;;4.63;0.70;;;7.90;51.10;;;;;;5042987;28;20082;-61
2021/03/13 05:07:18;;;;;;;2.42;0.77;;;7.90;51.10;;;;;;5042668;28;20033;-60
2021/03/13 05:09:43;;;;;;;3.13;0.70;;;7.90;51.20;;;;;;5043019;28;20029;-60
2021/03/13 05:12:09;;;;;;;2.13;0.60;;;7.90;50.80;;;;;;5043410;28;20079;-61
2021/03/13 05:14:35;;;;;;;2.42;0.70;;;7.90;50.70;;;;;;5025421;28;20209;-61
2021/03/13 05:17:01;;;;;;;4.47;0.60;;;7.90;50.20;;;;;;5042622;28;20041;-60
2021/03/13 05:19:26;;;;;;;2.08;0.68;;;7.90;50.40;;;;;;5042729;28;20040;-61
2021/03/13 05:21:53;;;;;;;2.75;0.90;;;7.90;50.80;;;;;;5042713;28;20320;-61
2021/03/13 05:24:18;;;;;;;2.97;0.60;;;7.90;50.10;;;;;;5044064;28;20303;-60
2021/03/13 05:26:44;;;;;;;2.08;0.55;;;7.90;51.10;;;;;;5042939;28;20083;-60
2021/03/13 05:29:10;;;;;;;2.20;0.60;;;7.90;51.10;;;;;;5042746;28;20044;-60
2021/03/13 05:31:35;;;;;;;2.58;0.77;;;8.00;50.10;;;;;;5042568;28;20048;-61
2021/03/13 05:34:01;;;;;;;0.55;0.47;;;8.00;50.30;;;;;;5042655;28;20038;-60
2021/03/13 05:36:26;;;;;;;3.85;0.63;;;8.00;50.30;;;;;;5042229;28;20029;-62
2021/03/13 05:38:52;;;;;;;1.10;0.50;;;7.90;50.00;;;;;;5043818;28;20048;-61
2021/03/13 05:41:17;;;;;;;1.92;0.65;;;8.00;49.40;;;;;;5042763;28;20034;-61
2021/03/13 05:43:43;;;;;;;1.05;0.40;;;8.00;49.40;;;;;;5041407;28;20046;-61
2021/03/13 05:46:08;;;;;;;3.97;0.55;;;8.00;48.40;;;;;;5024706;28;20025;-61
2021/03/13 05:48:34;;;;;;;1.95;0.50;;;8.10;48.80;;;;;;5025021;28;20052;-61
2021/03/13 05:51:00;;;;;;;3.70;0.57;;;8.10;49.20;;;;;;5046399;28;20033;-61
2021/03/13 05:53:25;;;;;;;0.77;0.43;;;8.00;48.60;;;;;;5045700;28;20088;-61
2021/03/13 05:55:54;;;;;;;0.98;0.40;;;8.00;49.50;;;;;;5046243;28;20076;-60
2021/03/13 05:58:21;;;;;;;1.75;0.60;;;8.10;49.80;;;;;;5046090;28;20045;-60
2021/03/13 06:00:47;;;;;;;2.72;0.50;;;8.00;48.90;;;;;;5045910;28;20238;-60
2021/03/13 06:03:12;;;;;;;2.95;0.60;;;8.10;49.40;;;;;;5046880;28;20088;-60
2021/03/13 06:05:38;;;;;;;1.20;0.50;;;8.10;48.50;;;;;;5028951;28;20033;-60
2021/03/13 06:08:03;;;;;;;2.00;0.63;;;8.10;47.60;;;;;;5044930;28;20037;-60
2021/03/13 06:10:29;;;;;;;2.05;0.55;;;8.20;48.90;;;;;;5045962;28;20037;-60
2021/03/13 06:12:54;;;;;;;1.33;0.47;;;8.20;47.80;;;;;;5046060;28;20080;-60
2021/03/13 06:15:23;;;;;;;1.80;0.60;;;8.20;48.20;;;;;;5047659;28;20321;-60
2021/03/13 06:17:59;;;;;;;1.88;0.60;;;8.20;47.80;;;;;;5046273;28;20056;-61
2021/03/13 06:20:37;;;;;;;4.00;0.90;;;8.30;47.90;;;;;;5046388;28;20105;-61
2021/03/13 06:23:15;;;;;;;1.92;0.50;;;8.30;48.30;;;;;;5046073;28;20033;-60
2021/03/13 06:25:41;;;;;;;1.30;0.50;;;8.30;48.00;;;;;;5045777;28;20037;-60
2021/03/13 06:28:19;;;;;;;2.08;0.50;;;8.40;48.10;;;;;;5045773;28;20343;-60
2021/03/13 06:30:46;;;;;;;1.88;0.65;;;8.40;48.10;;;;;;5045505;28;20095;-61
2021/03/13 06:33:19;;;;;;;2.75;0.60;;;8.40;47.60;;;;;;5047351;28;20025;-61
2021/03/13 06:35:45;;;;;;;1.83;0.50;;;8.50;47.60;;;;;;5045997;28;20041;-60
2021/03/13 06:38:27;;;;;;;3.33;0.52;;;8.50;47.60;;;;;;5045751;28;20115;-60
2021/03/13 06:40:55;;;;;;;1.27;0.50;;;8.60;48.00;;;;;;5045601;28;20109;-61
2021/03/13 06:43:22;;;;;;;2.25;0.60;;;8.70;47.60;;;;;;5045617;28;20041;-60
2021/03/13 06:46:03;;;;;;;1.58;0.52;;;8.90;47.20;;;;;;5045221;28;20048;-61
2021/03/13 06:48:52;;;;;;;1.77;0.65;;;8.90;46.80;;;;;;5045187;28;20060;-61
2021/03/13 06:51:30;;;;;;;1.02;0.50;;;8.90;47.40;;;;;;5046955;28;20025;-61
2021/03/13 06:54:17;;;;;;;0.60;0.40;;;9.00;47.40;;;;;;5045990;28;20312;-60
2021/03/13 06:56:59;;;;;;;1.27;0.50;;;9.10;47.30;;;;;;5045450;28;20041;-60
2021/03/13 06:59:35;;;;;;;1.98;0.50;;;9.10;46.80;;;;;;5044870;28;20037;-60
2021/03/13 07:02:07;;;;;;;2.25;0.60;;;9.10;46.50;;;;;;5044294;28;20050;-61
2021/03/13 07:04:42;;;;;;;2.30;0.40;;;9.10;46.70;;;;;;5045149;28;20037;-61
2021/03/13 07:07:07;;;;;;;1.38;0.50;;;9.10;45.80;;;;;;5045102;28;20033;-61
2021/03/13 07:09:53;;;;;;;1.85;0.73;;;9.10;46.30;;;;;;5044723;28;20059;-61
2021/03/13 07:12:26;;;;;;;3.85;0.60;;;9.20;45.30;;;;;;5046337;28;20052;-61
2021/03/13 07:14:53;;;;;;;2.15;0.60;;;9.20;45.70;;;;;;5045591;28;20036;-61
2021/03/13 07:17:19;;;;;;;0.85;0.50;;;9.30;46.30;;;;;;5044891;28;20041;-60
2021/03/13 07:19:44;;;;;;;1.70;0.50;;;9.50;45.80;;;;;;5043715;28;20251;-61
2021/03/13 07:22:13;;;;;;;2.15;0.63;;;9.80;45.20;;;;;;5044818;28;20056;-61
2021/03/13 07:24:43;;;;;;;3.55;0.50;;;10.00;44.60;;;;;;5044550;28;20029;-61
2021/03/13 07:27:12;;;;;;;3.95;0.80;;;10.10;44.70;;;;;;5046356;28;20392;-60
2021/03/13 07:29:40;;;;;;;0.77;0.43;;;10.20;43.50;;;;;;5044934;28;20037;-61
2021/03/13 07:32:08;;;;;;;2.03;0.70;;;10.20;43.30;;;;;;5043533;28;20333;-60
2021/03/13 07:34:37;;;;;;;6.85;1.27;;;10.30;43.40;;;;;;5043598;28;20037;-61
2021/03/13 07:37:03;;;;;;;2.63;0.70;;;10.40;43.60;;;;;;5044134;28;20037;-61
2021/03/13 07:39:41;;;;;;;4.20;0.80;;;10.40;43.10;;;;;;5044274;28;20340;-61
2021/03/13 07:42:17;;;;;;;2.75;0.70;;;10.50;42.50;;;;;;5045207;28;20030;-60
2021/03/13 07:44:42;;;;;;;1.52;0.55;;;10.40;43.00;;;;;;5044603;28;20087;-60
2021/03/13 07:47:11;;;;;;;1.75;0.52;;;10.70;41.90;;;;;;5044126;28;20333;-60
2021/03/13 07:49:37;;;;;;;1.45;0.50;;;10.80;41.70;;;;;;5044132;28;20336;-60
2021/03/13 07:52:03;;;;;;;0.75;0.40;;;10.80;42.00;;;;;;5043092;28;20071;-61
2021/03/13 07:54:35;;;;;;;1.23;0.40;;;10.70;42.40;;;;;;5044063;28;20040;-60
2021/03/13 07:57:01;;;;;;;2.38;0.50;;;10.60;41.40;;;;;;5045678;28;20056;-61
2021/03/13 07:59:51;;;;;;;1.58;0.50;;;10.50;42.40;;;;;;5044270;28;20037;-61
2021/03/13 08:02:29;;;;;;;2.20;0.60;;;10.40;41.70;;;;;;5004708;28;20245;-61
2021/03/13 08:04:58;;;;;;;2.13;0.80;;;10.40;42.30;;;;;;5004433;28;20045;-60
2021/03/13 08:07:26;;;;;;;3.22;0.80;;;10.40;42.10;;;;;;5004521;28;20097;-61
2021/03/13 08:09:51;;;;;;;0.82;0.60;;;10.40;42.70;;;;;;5004361;28;20034;-60
2021/03/13 08:12:36;;;;;;;1.92;0.38;;;10.40;43.10;;;;;;4988778;28;20037;-60
2021/03/13 08:15:02;;;;;;;4.85;0.60;;;10.40;41.90;;;;;;5003979;28;20030;-61
2021/03/13 08:17:40;;;;;;;2.05;0.70;;;10.40;42.70;;;;;;5004497;28;20042;-60
2021/03/13 08:20:08;;;;;;;3.75;0.90;;;10.40;42.40;;;;;;5004538;28;20035;-60
2021/03/13 08:22:33;;;;;;;2.28;0.70;;;10.30;42.80;;;;;;5004102;28;20237;-60
2021/03/13 08:24:59;;;;;;;6.55;1.92;;;10.30;43.40;;;;;;5003982;28;20035;-60
2021/03/13 08:27:42;;;;;;;3.33;1.10;;;10.40;43.50;;;;;;5004937;28;20042;-60
2021/03/13 08:30:24;;;;;;;2.00;0.90;;;10.40;43.20;;;;;;5004824;28;20038;-61
2021/03/13 08:33:03;;;;;;;3.97;1.52;;;10.40;43.30;;;;;;5003861;28;20046;-60
2021/03/13 08:35:46;;;;;;;2.80;1.30;;;10.40;43.70;;;;;;5004201;28;20038;-60
2021/03/13 08:38:12;;;;;;;1.83;0.70;;;10.40;43.20;;;;;;5003882;28;20045;-60
2021/03/13 08:40:48;;;;;;;1.70;0.60;;;10.50;43.60;;;;;;5003761;28;20054;-60
2021/03/13 08:43:34;;;;;;;2.30;0.80;;;10.50;43.80;;;;;;5003816;28;20037;-61
2021/03/13 08:45:59;;;;;;;1.95;0.82;;;10.60;42.20;;;;;;5003602;28;20101;-61
2021/03/13 08:48:56;;;;;;;1.65;0.60;;;10.50;43.30;;;;;;5005173;28;20030;-61
2021/03/13 08:51:22;;;;;;;3.42;0.80;;;10.50;43.40;;;;;;5004814;28;20030;-61
2021/03/13 08:53:47;;;;;;;2.00;0.60;;;10.40;43.00;;;;;;5002936;28;20270;-62
2021/03/13 08:56:44;;;;;;;1.17;0.50;;;10.40;41.90;;;;;;5003409;28;20039;-61
2021/03/13 08:59:14;;;;;;;5.07;1.45;;;10.40;43.10;;;;;;5003635;28;20046;-60
2021/03/13 09:01:40;;;;;;;4.50;0.70;;;10.50;42.70;;;;;;5038429;28;20096;-61
2021/03/13 09:04:06;;;;;;;2.75;0.70;;;10.60;43.60;;;;;;5042856;28;20333;-61
2021/03/13 09:06:31;;;;;;;1.60;0.60;;;10.60;42.10;;;;;;5042600;28;20129;-61
2021/03/13 09:09:16;;;;;;;1.08;0.60;;;10.60;42.10;;;;;;5044486;28;20208;-60
2021/03/13 09:11:42;;;;;;;2.72;0.70;;;10.70;41.70;;;;;;5043339;28;20041;-61
2021/03/13 09:14:08;;;;;;;1.83;1.02;;;10.60;41.30;;;;;;5042784;28;20041;-61
2021/03/13 09:16:35;;;;;;;0.93;0.40;;;10.70;41.60;;;;;;5042690;28;20206;-61
2021/03/13 09:19:01;;;;;;;2.17;0.60;;;10.70;42.20;;;;;;5042543;28;20037;-61
2021/03/13 09:21:40;;;;;;;1.92;0.68;;;10.70;41.20;;;;;;5042496;28;20044;-62
2021/03/13 09:24:07;;;;;;;0.70;0.43;;;10.80;41.90;;;;;;5043874;28;20108;-62
2021/03/13 09:26:32;;;;;;;1.55;0.60;;;10.80;41.70;;;;;;5043115;28;20041;-61
2021/03/13 09:28:58;;;;;;;0.68;0.50;;;10.80;41.10;;;;;;5042330;28;20042;-61
2021/03/13 09:31:24;;;;;;;1.30;0.50;;;10.80;41.00;;;;;;5042472;28;20194;-62
2021/03/13 09:33:49;;;;;;;1.63;0.50;;;10.80;42.00;;;;;;5042610;28;20347;-61
2021/03/13 09:36:15;;;;;;;3.45;0.70;;;10.80;40.90;;;;;;5043878;28;20063;-60
2021/03/13 09:38:57;;;;;;;3.22;0.50;;;10.80;40.70;;;;;;5042614;28;20105;-61
2021/03/13 09:41:22;;;;;;;;;;;10.80;41.30;;;;;;5043024;28;20057;-61
2021/03/13 09:43:48;;;;;;;3.88;0.60;;;10.90;41.00;;;;;;5042371;28;19905;-61
2021/03/13 09:46:17;;;;;;;1.27;0.50;;;10.80;41.10;;;;;;5042325;28;20048;-61
2021/03/13 09:48:43;;;;;;;1.25;0.50;;;10.80;40.70;;;;;;5041059;28;20218;-61
2021/03/13 09:51:09;;;;;;;3.03;0.40;;;10.80;39.90;;;;;;5044003;28;20058;-60
2021/03/13 09:53:36;;;;;;;2.47;1.10;;;10.90;39.70;;;;;;5042625;28;20112;-61
2021/03/13 09:56:01;;;;;;;1.38;0.50;;;11.10;39.60;;;;;;5042484;28;20037;-61
2021/03/13 09:58:27;;;;;;;2.38;0.50;;;11.30;39.60;;;;;;5042072;28;20052;-61
2021/03/13 10:00:52;;;;;;;1.25;0.50;;;11.40;39.50;;;;;;5041930;28;20160;-61
2021/03/13 10:03:18;;;;;;;2.55;0.88;;;11.50;39.00;;;;;;5043931;28;20053;-61
2021/03/13 10:05:43;;;;;;;1.23;0.60;;;11.70;39.90;;;;;;5041301;28;20080;-61
2021/03/13 10:08:13;;;;;;;4.38;0.70;;;11.80;39.30;;;;;;5041195;28;20037;-61
2021/03/13 10:10:40;;;;;;;1.75;0.50;;;11.80;40.00;;;;;;5042291;28;20077;-61
2021/03/13 10:13:06;;;;;;;1.10;0.40;;;11.90;38.70;;;;;;5040877;28;20261;-61
2021/03/13 10:15:33;;;;;;;1.60;0.50;;;11.90;37.70;;;;;;5040599;28;20056;-61
2021/03/13 10:18:06;;;;;;;2.38;0.70;;;11.90;37.80;;;;;;5043700;28;20037;-61
2021/03/13 10:20:35;;;;;;;2.63;0.60;;;11.90;38.40;;;;;;5042515;28;20224;-60
2021/03/13 10:23:11;;;;;;;2.00;0.70;;;11.90;37.60;;;;;;5041907;28;20038;-61
2021/03/13 10:25:38;;;;;;;3.38;0.82;;;11.90;37.60;;;;;;5041982;28;20038;-61
2021/03/13 10:28:08;;;;;;;4.10;0.60;;;11.90;38.70;;;;;;5041996;28;20038;-60
2021/03/13 10:30:34;;;;;;;1.98;0.55;;;11.80;38.50;;;;;;5042284;28;20038;-61
2021/03/13 10:33:00;;;;;;;1.60;0.70;;;11.80;38.30;;;;;;5043648;28;20041;-61
2021/03/13 10:35:27;;;;;;;2.45;0.63;;;11.90;38.70;;;;;;5041100;28;20033;-61
2021/03/13 10:38:20;;;;;;;5.43;0.70;;;11.90;38.60;;;;;;5044476;28;20048;-61
2021/03/13 10:40:50;;;;;;;1.08;0.50;;;11.90;37.90;;;;;;5036559;28;20329;-61
2021/03/13 10:43:25;;;;;;;1.48;0.63;;;11.90;38.50;;;;;;5044489;28;20040;-60
2021/03/13 10:45:57;;;;;;;1.60;0.60;;;12.00;37.90;;;;;;5045876;28;20091;-61
2021/03/13 10:48:27;;;;;;;1.83;0.65;;;12.00;38.50;;;;;;5046631;28;20083;-61
2021/03/13 10:50:52;;;;;;;2.80;0.88;;;12.00;38.70;;;;;;5045709;28;20037;-60
2021/03/13 10:53:32;;;;;;;4.50;0.93;;;12.10;38.20;;;;;;5045518;28;20041;-61
2021/03/13 10:56:05;;;;;;;1.08;0.50;;;12.20;38.50;;;;;;5045109;28;20076;-60
2021/03/13 10:58:32;;;;;;;1.98;0.60;;;12.30;38.90;;;;;;5045309;28;20049;-61
2021/03/13 11:00:58;;;;;;;2.22;0.65;;;12.30;38.40;;;;;;5044761;28;20045;-60
2021/03/13 11:03:23;;;;;;;2.35;0.70;;;12.40;38.50;;;;;;5046510;28;20033;-61
2021/03/13 11:05:51;;;;;;;1.42;0.80;;;12.40;37.40;;;;;;5045398;28;20048;-61
2021/03/13 11:08:20;;;;;;;4.05;0.73;;;12.30;38.60;;;;;;5045254;28;20038;-60
2021/03/13 11:10:46;;;;;;;1.77;0.60;;;12.40;38.20;;;;;;5044752;28;20044;-61
2021/03/13 11:13:11;;;;;;;1.63;0.70;;;12.40;38.50;;;;;;5044717;28;20061;-62
2021/03/13 11:15:37;;;;;;;2.45;0.70;;;12.40;38.30;;;;;;5044587;28;20041;-61
2021/03/13 11:18:03;;;;;;;1.65;0.60;;;12.60;38.10;;;;;;5046380;28;20217;-63
2021/03/13 11:20:29;;;;;;;1.98;0.70;;;12.70;38.10;;;;;;5044559;28;20097;-62
2021/03/13 11:22:54;;;;;;;2.67;1.10;;;12.90;38.10;;;;;;5044818;28;20029;-59
2021/03/13 11:25:20;;;;;;;3.72;0.70;;;13.10;38.00;;;;;;5044711;28;20352;-60
2021/03/13 11:27:45;;;;;;;1.73;0.60;;;13.10;37.40;;;;;;5044478;28;20047;-60
2021/03/13 11:30:11;;;;;;;3.22;0.80;;;13.30;36.40;;;;;;5046252;28;20040;-60
2021/03/13 11:32:37;;;;;;;3.90;0.70;;;13.40;35.00;;;;;;5044780;28;20041;-60
2021/03/13 11:35:05;;;;;;;0.93;0.50;;;13.50;35.80;;;;;;5044323;28;20091;-61
2021/03/13 11:37:30;;;;;;;2.08;0.80;;;13.70;36.40;;;;;;5044291;28;20045;-61
2021/03/13 11:39:56;;;;;;;2.42;0.73;;;13.60;36.70;;;;;;5044343;28;20221;-61
2021/03/13 11:42:27;;;;;;;1.67;0.70;;;13.70;36.50;;;;;;5045810;28;20037;-60
2021/03/13 11:45:02;;;;;;;2.25;0.70;;;13.80;34.80;;;;;;5044881;28;20064;-60
2021/03/13 11:47:28;;;;;;;2.53;1.30;;;13.90;35.70;;;;;;5044139;28;20087;-60
2021/03/13 11:49:54;;;;;;;2.17;0.90;;;14.10;35.80;;;;;;5044170;28;20174;-60
2021/03/13 11:52:20;;;;;;;1.02;0.60;;;14.10;36.00;;;;;;5044094;28;20257;-61
2021/03/13 11:54:46;;;;;;;1.23;0.57;;;14.20;36.20;;;;;;5043969;28;20306;-62
2021/03/13 11:57:12;;;;;;;4.15;0.70;;;14.30;35.50;;;;;;5045896;28;20033;-62
2021/03/13 11:59:37;;;;;;;2.08;0.63;;;14.40;35.00;;;;;;5044027;28;20033;-62
2021/03/13 12:02:03;;;;;;;1.83;0.88;;;14.70;35.50;;;;;;5043700;28;20108;-62
2021/03/13 12:04:29;;;;;;;2.33;0.80;;;14.80;35.00;;;;;;5043855;28;20332;-60
2021/03/13 12:06:54;;;;;;;2.83;0.80;;;14.80;35.00;;;;;;5043766;28;20060;-61
2021/03/13 12:09:20;;;;;;;2.28;0.70;;;15.00;34.40;;;;;;5045261;28;20321;-61
2021/03/13 12:11:46;;;;;;;4.85;0.70;;;15.20;32.60;;;;;;5043817;28;20041;-60
2021/03/13 12:14:11;;;;;;;2.05;0.70;;;15.20;32.70;;;;;;5043741;28;20037;-61
2021/03/13 12:16:37;;;;;;;1.85;0.85;;;15.30;33.50;;;;;;5033526;28;20309;-60
2021/03/13 12:19:02;;;;;;;1.73;0.60;;;15.30;33.00;;;;;;5028656;28;20100;-60
2021/03/13 12:21:28;;;;;;;1.55;0.50;;;15.30;32.80;;;;;;5044095;28;20067;-60
2021/03/13 12:23:54;;;;;;;3.90;0.70;;;15.40;33.20;;;;;;5043836;28;20032;-60
2021/03/13 12:26:20;;;;;;;0.80;0.50;;;15.40;33.20;;;;;;5043521;28;20221;-60
2021/03/13 12:28:47;;;;;;;1.45;0.60;;;15.50;33.20;;;;;;5043087;28;20089;-60
2021/03/13 12:31:14;;;;;;;1.85;0.70;;;15.60;33.00;;;;;;5036602;28;20369;-60
2021/03/13 12:33:39;;;;;;;2.30;0.82;;;15.60;31.90;;;;;;5025154;28;20072;-60
2021/03/13 12:36:06;;;;;;;2.03;0.80;;;15.60;32.70;;;;;;5044694;28;20045;-61
2021/03/13 12:38:31;;;;;;;1.08;0.60;;;15.50;32.30;;;;;;5043357;28;20091;-60
2021/03/13 12:40:57;;;;;;;1.70;0.70;;;15.60;31.50;;;;;;5043000;28;20332;-60
2021/03/13 12:43:22;;;;;;;1.67;0.70;;;15.60;31.70;;;;;;5035332;28;20148;-60
2021/03/13 12:45:48;;;;;;;1.60;0.60;;;15.50;32.10;;;;;;5026258;28;20106;-60
2021/03/13 12:48:13;;;;;;;2.58;0.55;;;15.40;31.10;;;;;;5044532;28;20030;-61
2021/03/13 12:50:39;;;;;;;1.13;0.50;;;15.30;32.20;;;;;;5043403;28;20108;-60
2021/03/13 12:53:04;;;;;;;3.38;0.60;;;15.30;31.10;;;;;;5029258;28;20040;-60
2021/03/13 12:55:30;;;;;;;1.85;0.95;;;15.20;31.60;;;;;;5031675;28;20317;-60
2021/03/13 12:57:55;;;;;;;1.30;0.60;;;15.10;31.00;;;;;;5042531;28;20084;-60